Indianola, Iowa
Current Conditions -  °F | °C
As of 10:13 AM on Thursday 23 Oct 2014 (Local Time) from KDSM Reporting Station
Overcast Overcast  
Wind Chill: 57°   Ceiling: 700
Heat Index: 57°   Visibility: 9mi
Dew Point: 54°   Wind: 7mph
Humidity: 89%   Direction: 220°SW
Pressure: 30.05"   Gusts: NA
Location:  41.36°N, 93.56°W
Report Text: KDSM 231513Z 22006KT 9SM BKN007 OVC055 14/12 A3005 RMK AO2 CIG 006V011 T01390122
Loading
Personal Weather Stations






























Interactive Weather Map
Tropical Storm Tracking
New forecast layout! Learn more

10-Day Weather Forecast

Advertisements
Track Severe Weather on mobile